^^
Station Historical Data
Daily Summary for August 9, 2017 Units:  Metric    English   Both
« Previous Day
Next Day »
Daily Weekly Monthly Yearly Custom
  High: Low: Average:
Temperature: 27 °C 4.8 °C 14.3 °C
Dew Point: -8 °C -34.3 °C -15.3 °C
Humidity: 32% 1% 18%
Wind Speed: 19.5km/h 0km/h 1.8km/h
Wind Gust: 22.5km/h - -
Wind- - NW
Pressure: 1019.9 hPa 1016.5 hPa -
Precipitation: 0 mm    
Historical Graphs
 
 
Tabular Data for August 9, 2017
Time Temperature Dew Point Pressure Wind Wind Speed Wind Gust Humidity Rainfall Rate (Hourly) solar Conditions
02:03 6.1 °C -11.1 °C 1018.5 hPa Calm     28% 0 mm 0.0 W/m2
02:11 5.4 °C -11.7 °C 1018.2 hPa Calm     28% 0 mm 0.0 W/m2
02:17 5.4 °C -11.2 °C 1018.2 hPa Calm     29% 0 mm 0.0 W/m2
02:22 5.4 °C -11.7 °C 1018.2 hPa Calm     28% 0 mm 0.0 W/m2
02:32 5.2 °C -11.4 °C 1018.2 hPa Calm     29% 0 mm 0.0 W/m2
02:37 5.2 °C -11.4 °C 1018.2 hPa Calm     29% 0 mm 0.0 W/m2
02:42 5.1 °C -11.5 °C 1018.2 hPa Calm     29% 0 mm 0.0 W/m2
02:47 4.9 °C -11.7 °C 1018.2 hPa Calm     29% 0 mm 0.0 W/m2
02:53 4.9 °C -11.2 °C 1018.2 hPa Calm     30% 0 mm 0.0 W/m2
02:58 5.1 °C -11.5 °C 1018.2 hPa Calm     29% 0 mm 0.0 W/m2
03:03 5.4 °C -10.8 °C 1018.5 hPa Calm     30% 0 mm 0.0 W/m2
03:14 6.1 °C -10.2 °C 1018.2 hPa Calm     30% 0 mm 0.0 W/m2
03:19 6.2 °C -10.5 °C 1018.2 hPa Calm     29% 0 mm 0.0 W/m2
03:24 6.1 °C -10.6 °C 1018.2 hPa Calm     29% 0 mm 0.0 W/m2
03:29 5.8 °C -10.9 °C 1018.2 hPa Calm     29% 0 mm 0.0 W/m2
03:35 5.7 °C -11 °C 1018.2 hPa Calm     29% 0 mm 0.0 W/m2
03:40 5.4 °C -11.2 °C 1018.2 hPa Calm     29% 0 mm 0.0 W/m2
03:46 5.2 °C -11 °C 1018.2 hPa Calm     30% 0 mm 0.0 W/m2
03:51 5.4 °C -10.8 °C 1018.2 hPa Calm     30% 0 mm 0.0 W/m2
03:56 5.7 °C -11 °C 1018.2 hPa Calm     29% 0 mm 0.0 W/m2
04:01 5.7 °C -10.5 °C 1018.2 hPa Calm     30% 0 mm 0.0 W/m2
04:06 5.6 °C -11.1 °C 1018.2 hPa Calm     29% 0 mm 0.0 W/m2
04:16 5 °C -10.3 °C 1018.2 hPa Calm     32% 0 mm 0.0 W/m2
04:32 5.1 °C -11.1 °C 1018.2 hPa Calm     30% 0 mm 0.0 W/m2
04:37 5.1 °C -11.5 °C 1018.2 hPa Calm     29% 0 mm 0.0 W/m2
04:42 5.1 °C -11.5 °C 1018.5 hPa Calm     29% 0 mm 0.0 W/m2
04:47 4.9 °C -11.7 °C 1018.5 hPa Calm     29% 0 mm 0.0 W/m2
04:52 5.1 °C -11.1 °C 1018.5 hPa Calm     30% 0 mm 0.0 W/m2
04:59 5.4 °C -11.2 °C 1018.5 hPa Calm     29% 0 mm 0.0 W/m2
05:04 5.7 °C -11 °C 1018.8 hPa Calm     29% 0 mm 0.0 W/m2
05:13 6.1 °C -11.1 °C 1018.8 hPa Calm     28% 0 mm 0.0 W/m2
06:00 4.9 °C -11.7 °C 1019.2 hPa Calm     29% 0 mm 0.0 W/m2
06:05 4.8 °C -11.3 °C 1019.2 hPa Calm     30% 0 mm 0.0 W/m2
06:09 5.1 °C -11.1 °C 1019.2 hPa Calm     30% 0 mm 0.0 W/m2
06:14 5.3 °C -10.9 °C 1019.2 hPa Calm     30% 0 mm 0.0 W/m2
06:20 5.3 °C -10.9 °C 1019.2 hPa Calm     30% 0 mm 0.0 W/m2
06:34 5.6 °C -10.2 °C 1019.5 hPa Calm     31% 0 mm 7.0 W/m2
06:40 5.9 °C -10 °C 1019.5 hPa Calm     31% 0 mm 11.0 W/m2
06:56 6.4 °C -9.9 °C 1019.5 hPa Calm     30% 0 mm 16.0 W/m2
07:06 6.6 °C -9.8 °C 1019.5 hPa Calm     30% 0 mm 74.0 W/m2
07:21 8.3 °C -9.2 °C 1019.5 hPa Calm     28% 0 mm 130.0 W/m2
07:36 9 °C -9 °C 1019.5 hPa Calm     27% 0 mm 190.0 W/m2
07:52 9.8 °C -8.8 °C 1019.9 hPa Calm     26% 0 mm 250.0 W/m2
08:15 11.9 °C -8 °C 1019.9 hPa Calm   4.8 km/h 24% 0 mm 301.0 W/m2
08:23 13.1 °C -8.2 °C 1019.9 hPa Calm     22% 0 mm 345.0 W/m2
08:43 14.7 °C -8.7 °C 1019.9 hPa Calm   8 km/h 19% 0 mm 397.0 W/m2
09:03 16 °C -9.8 °C 1019.9 hPa WNW 6.4 km/h 8 km/h 16% 0 mm 457.0 W/m2
09:23 16.7 °C -11 °C 1019.9 hPa WNW 4.7 km/h 4.8 km/h 14% 0 mm 462.0 W/m2
09:48 17.5 °C -11.2 °C 1019.9 hPa WNW 9.7 km/h 16.1 km/h 13% 0 mm 541.0 W/m2
10:16 17.9 °C -10.9 °C 1019.9 hPa WNW 1.4 km/h 16.1 km/h 13% 0 mm 619.0 W/m2
10:28 19.1 °C -11 °C 1019.9 hPa Calm   9.7 km/h 12% 0 mm 613.0 W/m2
10:54 19.7 °C -11.6 °C 1019.5 hPa Calm   16.1 km/h 11% 0 mm 629.0 W/m2
11:08 20.2 °C -11.2 °C 1019.5 hPa Calm   20.9 km/h 11% 0 mm 661.0 W/m2
11:17 20.4 °C -11.1 °C 1019.2 hPa WNW 6.4 km/h 20.9 km/h 11% 0 mm 621.0 W/m2
11:23 20.9 °C -11.9 °C 1018.8 hPa NW 11.1 km/h 20.9 km/h 10% 0 mm 717.0 W/m2
11:33 21.3 °C -11.6 °C 1018.8 hPa Calm   19.3 km/h 10% 0 mm 610.0 W/m2
11:54 21.6 °C -12.7 °C 1018.5 hPa NW 9.7 km/h 22.5 km/h 9% 0 mm 691.0 W/m2
12:04 22.1 °C -13.7 °C 1018.5 hPa NW 13 km/h 22.5 km/h 8% 0 mm 701.0 W/m2
12:19 22.9 °C -13.1 °C 1018.2 hPa NW 13 km/h 19.3 km/h 8% 0 mm 654.0 W/m2
12:41 23 °C -14.7 °C 1018.2 hPa NW 19.5 km/h 19.5 km/h 7% 0 mm 512.0 W/m2
12:49 23.5 °C -16.2 °C 1017.8 hPa Calm   14.5 km/h 6% 0 mm 601.0 W/m2
13:10 23.9 °C -18.1 °C 1017.5 hPa NW 11.1 km/h 14.5 km/h 5% 0 mm 717.0 W/m2
13:19 24.4 °C -20.3 °C 1017.2 hPa NW 7.9 km/h 20.9 km/h 4% 0 mm 714.0 W/m2
13:34 24.7 °C -20.1 °C 1016.8 hPa NW 11.1 km/h 12.9 km/h 4% 0 mm 668.0 W/m2
13:50 25 °C -23.2 °C 1016.8 hPa NW 7.9 km/h 12.9 km/h 3% 0 mm 663.0 W/m2
14:05 25.4 °C -27.4 °C 1016.8 hPa Calm   11.3 km/h 2% 0 mm 592.0 W/m2
14:17 25.5 °C -22.9 °C 1016.8 hPa Calm     3% 0 mm 568.0 W/m2
14:23 25.7 °C -27.2 °C 1016.8 hPa Calm     2% 0 mm 425.0 W/m2
14:25 25.9 °C -22.6 °C 1016.8 hPa Calm   12.9 km/h 3% 0 mm 512.0 W/m2
14:32 25.9 °C -22.6 °C 1016.8 hPa NW 7.9 km/h 12.9 km/h 3% 0 mm 520.0 W/m2
14:36 25.9 °C -22.6 °C 1016.8 hPa Calm     3% 0 mm 519.0 W/m2
14:44 26 °C -27 °C 1016.8 hPa Calm     2% 0 mm 501.0 W/m2
14:51 26.1 °C -27 °C 1016.5 hPa NW 3.2 km/h 9.7 km/h 2% 0 mm 461.0 W/m2
15:04 26 °C -34.3 °C 1016.5 hPa Calm   8 km/h 1% 0 mm 512.0 W/m2
15:11 26.1 °C -27 °C 1016.8 hPa NW 1.4 km/h 12.9 km/h 2% 0 mm 413.0 W/m2
15:21 26.1 °C -27 °C 1016.5 hPa Calm   6.4 km/h 2% 0 mm 457.0 W/m2
15:32 26.4 °C -26.8 °C 1016.5 hPa Calm     2% 0 mm 367.0 W/m2
15:43 26.6 °C -26.6 °C 1016.5 hPa Calm     2% 0 mm 357.0 W/m2
15:57 26.6 °C -33.9 °C 1016.5 hPa Calm     1% 0 mm 278.0 W/m2
16:17 27 °C -33.7 °C 1016.5 hPa Calm   3.2 km/h 1% 0 mm 98.0 W/m2
16:23 26.1 °C -34.2 °C 1016.5 hPa Calm     1% 0 mm 139.0 W/m2
16:39 25.4 °C -27.4 °C 1016.8 hPa Calm     2% 0 mm 81.0 W/m2
17:00 24.8 °C -27.8 °C 1016.8 hPa Calm     2% 0 mm 54.0 W/m2
17:10 23.9 °C -28.4 °C 1016.8 hPa Calm     2% 0 mm 18.0 W/m2
17:24 22.7 °C -16.8 °C 1017.2 hPa NW 7.9 km/h 11.3 km/h 6% 0 mm 9.0 W/m2
17:32 21.6 °C -15.7 °C 1017.5 hPa NW 6.4 km/h 8 km/h 7% 0 mm 5.0 W/m2
17:35 21 °C -16.2 °C 1017.5 hPa Calm   6.4 km/h 7% 0 mm 0.0 W/m2
17:41 20.6 °C -16.5 °C 1017.5 hPa NW 1.4 km/h 3.2 km/h 7% 0 mm 0.0 W/m2
Canyon Roadhouse, Fishriver Canyon, Namibia
Compliments of Weather Underground - 2 mb